Parkside, New York
Current Conditions -  °F | °C
As of 2:51 PM on Sunday 23 Nov 2014 (Local Time) from KLGA Reporting Station
Broken Clouds Broken Clouds  
Wind Chill: 55°   Ceiling: 19000
Heat Index: 55°   Visibility: 10mi
Dew Point: 24°   Wind: 8mph
Humidity: 30%   Direction: 230°SW
Pressure: 30.14"   Gusts: NA
Location:  40.7228°N, 73.845°W
Report Text: KLGA 231951Z 23007KT 10SM FEW070 SCT110 SCT160 BKN190 BKN250 13/M04 A3014 RMK AO2 SLP205 ACSL N-NE T01281044
Loading
Personal Weather Stations






























Interactive Weather Map New forecast layout! Learn more

10-Day Weather Forecast

Advertisements
Track Severe Weather on mobile